Time;durP1;ratioP1;P1;durP2;ratioP2;P2;SDS_P1;SDS_P2;PMS_P1;PMS_P2;Temp;Humidity;BMP_temperature;BMP_pressure;BME280_temperature;BME280_humidity;BME280_pressure;Samples;Min_cycle;Max_cycle;Signal;HPM_P1;HPM_P2
2022/04/03 00:02:26;;;;;;;16.45;7.17;;;;;;;-1.37;66.58;99616.17;1638421;85;25633;-68
2022/04/03 00:07:26;;;;;;;12.28;7.37;;;;;;;-1.39;66.73;99622.79;1606759;87;27408;-68
2022/04/03 00:09:53;;;;;;;15.08;7.53;;;;;;;-1.42;66.74;99625.39;1618653;88;25874;-68
2022/04/03 00:12:19;;;;;;;13.15;7.42;;;;;;;-1.46;66.56;99618.98;1622889;88;25707;-68
2022/04/03 00:14:45;;;;;;;14.65;8.73;;;;;;;-1.48;66.66;99618.44;1620282;85;27538;-67
2022/04/03 00:17:11;;;;;;;16.27;7.42;;;;;;;-1.49;66.72;99622.13;1622577;85;32751;-68
2022/04/03 00:19:38;;;;;;;17.15;7.78;;;;;;;-1.52;66.74;99615.45;1615001;88;27356;-68
2022/04/03 00:22:05;;;;;;;14.05;7.25;;;;;;;-1.52;66.66;99619.42;1639355;85;27214;-68
2022/04/03 00:24:31;;;;;;;14.98;7.85;;;;;;;-1.54;66.68;99620.20;1638448;85;25810;-68
2022/04/03 00:26:57;;;;;;;14.40;6.85;;;;;;;-1.55;66.75;99613.81;1638377;85;25469;-68
2022/04/03 00:29:23;;;;;;;13.80;7.25;;;;;;;-1.57;66.75;99619.36;1637069;86;25762;-68
2022/04/03 00:31:50;;;;;;;13.90;7.58;;;;;;;-1.58;66.69;99620.95;1618315;88;27350;-68
2022/04/03 00:34:17;;;;;;;12.68;7.37;;;;;;;-1.59;66.63;99624.64;1619993;88;25833;-68
2022/04/03 00:36:43;;;;;;;15.53;7.25;;;;;;;-1.63;66.74;99619.03;1638268;85;25842;-68
2022/04/03 00:39:09;;;;;;;14.33;7.58;;;;;;;-1.64;66.76;99622.72;1637676;85;25723;-68
2022/04/03 00:41:37;;;;;;;15.90;7.45;;;;;;;-1.65;66.78;99619.80;1634452;85;25924;-69
2022/04/03 00:44:04;;;;;;;16.23;7.08;;;;;;;-1.66;66.73;99624.81;1612694;86;27338;-69
2022/04/03 00:46:33;;;;;;;12.30;7.35;;;;;;;-1.67;66.77;99615.78;1637529;85;25838;-69
2022/04/03 00:49:02;;;;;;;11.35;6.87;;;;;;;-1.70;66.88;99619.20;1638526;85;32937;-68
2022/04/03 00:51:30;;;;;;;15.58;7.83;;;;;;;-1.73;66.85;99621.01;1638890;85;31589;-68
2022/04/03 00:53:57;;;;;;;13.88;8.00;;;;;;;-1.77;66.78;99617.25;1629676;85;25895;-69
2022/04/03 00:56:24;;;;;;;16.80;7.17;;;;;;;-1.76;66.94;99620.70;1637090;86;27935;-68
2022/04/03 00:58:51;;;;;;;15.08;7.80;;;;;;;-1.79;66.88;99621.18;1637642;85;25821;-68
2022/04/03 01:01:21;;;;;;;14.33;6.87;;;;;;;-1.81;66.94;99615.33;1638596;85;25877;-68
2022/04/03 01:03:47;;;;;;;12.88;7.03;;;;;;;-1.83;66.99;99624.05;1593407;88;25746;-67
2022/04/03 01:06:13;;;;;;;12.63;7.00;;;;;;;-1.85;66.94;99615.01;1618661;88;25762;-66
2022/04/03 01:08:42;;;;;;;15.83;6.92;;;;;;;-1.89;67.00;99622.65;1617888;88;27384;-66
2022/04/03 01:11:12;;;;;;;16.37;8.18;;;;;;;-1.89;67.05;99623.98;1617504;88;28777;-68
2022/04/03 01:13:47;;;;;;;12.68;7.42;;;;;;;-1.90;67.02;99628.19;1637992;85;25801;-67
2022/04/03 01:16:14;;;;;;;15.78;7.05;;;;;;;-1.92;67.12;99623.66;1634532;85;25368;-68
2022/04/03 01:18:41;;;;;;;12.95;7.15;;;;;;;-1.93;67.09;99626.02;1633594;86;25875;-68
2022/04/03 01:21:08;;;;;;;13.58;7.22;;;;;;;-1.96;67.10;99628.65;1637510;86;28020;-68
2022/04/03 01:23:34;;;;;;;13.45;7.10;;;;;;;-1.98;67.18;99625.94;1632312;85;25914;-67
2022/04/03 01:26:00;;;;;;;11.57;6.67;;;;;;;-1.98;67.19;99628.06;1620530;88;25469;-67
2022/04/03 01:28:27;;;;;;;11.63;6.60;;;;;;;-1.99;67.22;99635.75;1618773;88;25852;-68
2022/04/03 01:30:53;;;;;;;17.40;7.03;;;;;;;-2.01;67.19;99627.25;1619419;88;25787;-68
2022/04/03 01:33:19;;;;;;;11.40;6.65;;;;;;;-2.02;67.27;99626.16;1620730;88;28461;-67
2022/04/03 01:35:46;;;;;;;11.50;7.05;;;;;;;-2.03;67.36;99631.17;1628226;85;25997;-67
2022/04/03 01:38:13;;;;;;;16.77;6.90;;;;;;;-2.04;67.27;99630.88;1620083;85;25796;-68
2022/04/03 01:40:40;;;;;;;10.95;6.80;;;;;;;-2.07;67.33;99631.64;1638909;86;25863;-68
2022/04/03 01:43:10;;;;;;;15.10;6.75;;;;;;;-2.06;67.35;99636.41;1620248;88;25618;-68
2022/04/03 01:45:38;;;;;;;12.98;7.40;;;;;;;-2.08;67.42;99637.19;1614394;85;28014;-68
2022/04/03 01:48:08;;;;;;;10.75;6.78;;;;;;;-2.10;67.41;99638.75;1618846;88;25521;-68
2022/04/03 01:50:35;;;;;;;11.08;6.67;;;;;;;-2.12;67.35;99639.52;1634120;85;25595;-68
2022/04/03 01:53:03;;;;;;;11.00;6.45;;;;;;;-2.13;67.39;99640.58;1620547;88;25917;-68
2022/04/03 01:55:30;;;;;;;10.90;6.17;;;;;;;-2.13;67.38;99645.05;1635517;86;25866;-68
2022/04/03 01:57:56;;;;;;;11.25;6.55;;;;;;;-2.14;67.48;99650.09;1625982;86;29620;-68
2022/04/03 02:00:23;;;;;;;13.53;7.22;;;;;;;-2.18;67.39;99647.12;1623760;86;25519;-67
2022/04/03 02:02:50;;;;;;;12.37;7.20;;;;;;;-2.18;67.51;99651.59;1625534;85;26326;-68
2022/04/03 02:05:17;;;;;;;13.98;7.37;;;;;;;-2.21;67.59;99656.88;1635729;86;25843;-68
2022/04/03 02:07:44;;;;;;;10.25;6.45;;;;;;;-2.21;67.63;99660.02;1639169;85;25832;-68
2022/04/03 02:10:12;;;;;;;11.57;6.53;;;;;;;-2.22;67.50;99657.91;1633656;85;27316;-67
2022/04/03 02:12:45;;;;;;;12.30;6.17;;;;;;;-2.25;67.38;99665.00;1617969;88;25466;-67
2022/04/03 02:15:12;;;;;;;12.65;6.47;;;;;;;-2.27;67.41;99663.91;1639125;85;25941;-67
2022/04/03 02:17:41;;;;;;;15.10;7.15;;;;;;;-2.27;67.51;99664.44;1618143;88;27434;-67
2022/04/03 02:20:10;;;;;;;8.27;5.27;;;;;;;-2.29;67.45;99662.03;1615217;85;25885;-67
2022/04/03 02:22:37;;;;;;;9.13;6.37;;;;;;;-2.32;67.51;99659.84;1621154;88;33065;-67
2022/04/03 02:25:09;;;;;;;14.60;7.53;;;;;;;-2.34;67.50;99664.59;1634106;86;25817;-67
2022/04/03 02:27:34;;;;;;;10.65;6.30;;;;;;;-2.36;67.59;99660.59;1638064;85;25487;-68
2022/04/03 02:30:00;;;;;;;10.90;6.87;;;;;;;-2.38;67.55;99668.77;1631887;86;26912;-68
2022/04/03 02:32:27;;;;;;;10.75;6.03;;;;;;;-2.39;67.53;99665.03;1631751;86;25814;-68
2022/04/03 02:34:53;;;;;;;12.35;6.60;;;;;;;-2.41;67.48;99663.15;1634409;86;27410;-67
2022/04/03 02:37:20;;;;;;;11.18;7.62;;;;;;;-2.44;67.46;99666.53;1633638;86;25437;-67
2022/04/03 02:39:46;;;;;;;13.40;6.97;;;;;;;-2.47;67.48;99669.68;1592287;88;25905;-67
2022/04/03 02:42:13;;;;;;;12.65;6.35;;;;;;;-2.48;67.48;99668.59;1635154;86;26015;-67
2022/04/03 02:44:39;;;;;;;10.60;6.35;;;;;;;-2.52;67.39;99673.56;1637056;86;25840;-67
2022/04/03 02:47:06;;;;;;;11.30;6.83;;;;;;;-2.52;67.50;99676.71;1623582;86;27314;-67
2022/04/03 02:49:32;;;;;;;10.95;6.25;;;;;;;-2.54;67.40;99678.27;1626032;86;25766;-67
2022/04/03 02:51:58;;;;;;;14.43;7.55;;;;;;;-2.56;67.43;99674.27;1631199;86;25751;-67
2022/04/03 02:54:25;;;;;;;11.93;6.37;;;;;;;-2.58;67.37;99675.03;1638420;85;25474;-68
2022/04/03 02:56:51;;;;;;;12.20;6.53;;;;;;;-2.60;67.35;99678.44;1623265;85;25527;-67
2022/04/03 02:59:17;;;;;;;13.30;6.70;;;;;;;-2.61;67.38;99682.12;1618273;88;27337;-68
2022/04/03 03:01:43;;;;;;;17.52;7.12;;;;;;;-2.64;67.28;99682.88;1639836;85;25541;-67
2022/04/03 03:04:09;;;;;;;13.53;6.28;;;;;;;-2.66;67.23;99685.47;1635417;85;25885;-67
2022/04/03 03:06:35;;;;;;;12.80;7.25;;;;;;;-2.68;67.22;99684.91;1635479;85;35333;-67
2022/04/03 03:09:02;;;;;;;14.80;6.53;;;;;;;-2.71;67.18;99682.20;1634513;85;25474;-67
2022/04/03 03:11:29;;;;;;;10.65;6.75;;;;;;;-2.74;67.12;99686.66;1617592;87;27334;-67
2022/04/03 03:13:56;;;;;;;11.78;7.40;;;;;;;-2.76;67.07;99682.09;1635226;85;25885;-67
2022/04/03 03:16:22;;;;;;;13.25;7.10;;;;;;;-2.77;67.07;99686.33;1642991;85;25457;-67
2022/04/03 03:18:48;;;;;;;11.08;7.03;;;;;;;-2.78;67.02;99684.72;1632354;85;25856;-67
2022/04/03 03:21:15;;;;;;;11.30;7.22;;;;;;;-2.80;66.97;99688.92;1619575;85;25710;-67
2022/04/03 03:23:42;;;;;;;10.60;6.80;;;;;;;-2.84;66.88;99691.23;1583094;89;27422;-67
2022/04/03 03:26:09;;;;;;;11.68;6.80;;;;;;;-2.85;66.84;99690.14;1588386;90;25494;-67
2022/04/03 03:28:35;;;;;;;12.75;7.53;;;;;;;-2.85;66.83;99687.49;1594958;88;25760;-67
2022/04/03 03:31:02;;;;;;;12.88;6.85;;;;;;;-2.88;66.72;99688.78;1632990;85;25533;-67
2022/04/03 03:33:29;;;;;;;12.70;7.10;;;;;;;-2.90;66.75;99690.04;1641188;85;25611;-67
2022/04/03 03:35:55;;;;;;;9.75;6.40;;;;;;;-2.93;66.68;99697.91;1620973;85;27461;-67
2022/04/03 03:38:22;;;;;;;10.63;6.22;;;;;;;-2.95;66.69;99698.67;1640014;85;25869;-67
2022/04/03 03:40:48;;;;;;;10.98;6.95;;;;;;;-2.95;66.74;99696.55;1616941;86;25827;-67
2022/04/03 03:43:15;;;;;;;10.88;6.87;;;;;;;-2.97;66.80;99702.61;1617235;88;25915;-67
2022/04/03 03:45:42;;;;;;;11.40;6.92;;;;;;;-2.99;66.61;99709.98;1637792;85;25870;-67
2022/04/03 03:48:11;;;;;;;14.68;7.10;;;;;;;-3.03;66.51;99707.80;1619133;88;27550;-67
2022/04/03 03:50:38;;;;;;;9.58;6.17;;;;;;;-3.06;66.46;99707.47;1620199;85;27245;-67
2022/04/03 03:53:07;;;;;;;13.60;9.25;;;;;;;-3.07;66.54;99711.93;1621526;85;25545;-67
2022/04/03 03:55:33;;;;;;;10.58;6.97;;;;;;;-3.08;66.55;99715.63;1618268;88;25499;-67
2022/04/03 03:57:59;;;;;;;12.43;7.00;;;;;;;-3.11;66.46;99713.45;1621404;88;25435;-67
2022/04/03 04:00:26;;;;;;;12.33;6.50;;;;;;;-3.13;66.41;99714.70;1623227;85;27313;-67
2022/04/03 04:02:53;;;;;;;11.25;6.33;;;;;;;-3.14;66.47;99721.05;1622116;85;26420;-67
2022/04/03 04:05:20;;;;;;;9.83;6.42;;;;;;;-3.16;66.46;99724.45;1637185;85;25491;-66
2022/04/03 04:07:47;;;;;;;11.25;6.62;;;;;;;-3.18;66.43;99728.65;1595964;88;25547;-67
2022/04/03 04:10:16;;;;;;;10.70;6.00;;;;;;;-3.20;66.38;99729.41;1618512;85;25479;-67
2022/04/03 04:12:46;;;;;;;13.85;6.90;;;;;;;-3.22;66.38;99736.24;1627385;85;27951;-67
2022/04/03 04:15:14;;;;;;;11.22;6.58;;;;;;;-3.23;66.39;99743.09;1621140;88;25915;-67
2022/04/03 04:17:48;;;;;;;11.95;6.72;;;;;;;-3.25;66.43;99738.52;1620784;88;25941;-67
2022/04/03 04:20:17;;;;;;;10.75;6.25;;;;;;;-3.25;66.37;99738.52;1621835;88;25863;-67
2022/04/03 04:22:46;;;;;;;12.55;6.50;;;;;;;-3.26;66.37;99743.55;1639676;85;25896;-67
2022/04/03 04:25:13;;;;;;;;;;;;;;;-3.26;66.35;99743.55;1636655;85;27966;-66
2022/04/03 04:27:41;;;;;;;11.12;5.65;;;;;;;-3.28;66.36;99746.94;1634728;86;25938;-67
2022/04/03 04:30:09;;;;;;;13.55;6.12;;;;;;;-3.29;66.29;99746.12;1634616;85;25487;-66
2022/04/03 04:32:36;;;;;;;9.85;5.90;;;;;;;-3.29;66.26;99752.73;1638471;85;25730;-66
2022/04/03 04:35:05;;;;;;;13.25;6.47;;;;;;;-3.29;66.30;99753.25;1636353;85;25909;-67
2022/04/03 04:37:31;;;;;;;12.90;6.95;;;;;;;-3.29;66.37;99758.02;1636514;86;27915;-67
2022/04/03 04:39:58;;;;;;;8.78;5.85;;;;;;;-3.28;66.30;99753.55;1637971;85;25893;-67
2022/04/03 04:42:25;;;;;;;12.00;6.80;;;;;;;-3.26;66.34;99761.53;1638277;85;25540;-67
2022/04/03 04:44:51;;;;;;;12.53;5.92;;;;;;;-3.25;66.32;99761.83;1637984;85;26025;-67
2022/04/03 04:47:19;;;;;;;12.33;6.45;;;;;;;-3.22;66.34;99765.34;1630418;86;26163;-67
2022/04/03 04:49:46;;;;;;;9.53;6.12;;;;;;;-3.19;66.40;99765.38;1629646;85;27935;-67
2022/04/03 04:52:13;;;;;;;9.48;5.75;;;;;;;-3.16;66.35;99770.75;1593163;88;25977;-66
2022/04/03 04:54:39;;;;;;;11.97;6.22;;;;;;;-3.13;66.34;99771.09;1621470;88;25772;-67
2022/04/03 04:57:07;;;;;;;11.90;6.72;;;;;;;-3.10;66.21;99775.09;1626441;86;25819;-67
2022/04/03 04:59:34;;;;;;;12.90;7.12;;;;;;;-3.07;66.20;99775.96;1588402;88;25590;-67
2022/04/03 05:02:00;;;;;;;10.13;5.97;;;;;;;-3.02;66.27;99781.36;1642094;85;27446;-67
2022/04/03 05:04:28;;;;;;;11.65;6.50;;;;;;;-2.97;65.90;99785.97;1635911;85;25482;-66
2022/04/03 05:06:55;;;;;;;13.45;6.37;;;;;;;-2.93;65.87;99783.13;1632296;86;25480;-67
2022/04/03 05:09:23;;;;;;;13.88;6.97;;;;;;;-2.88;66.00;99800.45;1632461;86;25841;-66
2022/04/03 05:11:50;;;;;;;14.30;6.83;;;;;;;-2.82;65.96;99802.18;1637831;85;25439;-68
2022/04/03 05:14:17;;;;;;;12.70;6.53;;;;;;;-2.77;65.74;99798.31;1616660;88;27936;-66
2022/04/03 05:16:45;;;;;;;10.53;6.47;;;;;;;-2.70;65.74;99796.86;1629445;85;25835;-66
2022/04/03 05:19:13;;;;;;;9.38;6.62;;;;;;;-2.61;65.86;99798.62;1640016;85;25459;-66
2022/04/03 05:21:41;;;;;;;7.72;4.62;;;;;;;-2.56;65.41;99802.17;1593884;88;27552;-67
2022/04/03 05:24:09;;;;;;;13.13;6.62;;;;;;;-2.47;65.65;99810.55;1640962;85;25833;-67
2022/04/03 05:26:36;;;;;;;12.23;7.40;;;;;;;-2.40;65.21;99809.92;1639638;85;27364;-67
2022/04/03 05:29:03;;;;;;;13.35;7.58;;;;;;;-2.30;65.36;99814.10;1636189;85;25861;-66
2022/04/03 05:31:30;;;;;;;12.10;6.58;;;;;;;-2.22;65.03;99808.93;1617759;88;25779;-67
2022/04/03 05:33:57;;;;;;;11.22;7.08;;;;;;;-2.11;64.92;99811.24;1619748;88;25824;-67
2022/04/03 05:36:23;;;;;;;13.35;6.72;;;;;;;-1.98;65.13;99820.77;1620329;88;25778;-67
2022/04/03 05:38:50;;;;;;;14.68;7.47;;;;;;;-1.85;64.76;99824.45;1631718;85;27744;-67
2022/04/03 05:41:16;;;;;;;11.60;8.25;;;;;;;-1.73;64.46;99824.40;1615171;87;25774;-66
2022/04/03 05:43:42;;;;;;;13.50;7.45;;;;;;;-1.61;64.32;99824.34;1624063;85;25819;-66
2022/04/03 05:46:10;;;;;;;11.30;7.15;;;;;;;-1.47;64.25;99828.80;1645748;85;25950;-67
2022/04/03 05:48:37;;;;;;;11.10;7.03;;;;;;;-1.32;63.85;99833.83;1641058;86;25792;-67
2022/04/03 05:51:03;;;;;;;13.53;7.87;;;;;;;-1.19;63.76;99835.36;1620624;85;27325;-67
2022/04/03 05:53:30;;;;;;;12.80;7.85;;;;;;;-1.06;62.95;99840.84;1585764;89;28627;-67
2022/04/03 05:55:56;;;;;;;13.88;8.10;;;;;;;-0.92;62.70;99841.84;1618101;88;25476;-67
2022/04/03 05:58:24;;;;;;;10.80;7.53;;;;;;;-0.74;63.08;99844.23;1615535;85;25456;-67
2022/04/03 06:00:51;;;;;;;9.60;7.33;;;;;;;-0.55;62.97;99843.95;1619869;88;25873;-67
2022/04/03 06:03:17;;;;;;;13.50;8.78;;;;;;;-0.41;62.43;99851.82;1620717;88;27338;-67
2022/04/03 06:05:43;;;;;;;14.83;7.95;;;;;;;-0.22;62.58;99855.79;1639042;85;25908;-67
2022/04/03 06:08:09;;;;;;;11.85;8.10;;;;;;;-0.03;61.91;99858.92;1637866;85;25921;-67
2022/04/03 06:10:35;;;;;;;10.38;7.62;;;;;;;0.14;61.04;99856.72;1632368;86;25848;-67
2022/04/03 06:13:08;;;;;;;12.88;8.08;;;;;;;0.26;60.52;99858.70;1638075;85;25291;-67
2022/04/03 06:15:39;;;;;;;11.53;7.70;;;;;;;0.43;61.17;99857.27;1634046;85;27346;-67
2022/04/03 06:18:09;;;;;;;11.30;8.10;;;;;;;0.69;61.44;99857.48;1633894;86;25739;-68
2022/04/03 06:20:36;;;;;;;11.85;7.83;;;;;;;0.92;60.48;99863.00;1636652;85;26218;-67
2022/04/03 06:23:12;;;;;;;14.38;7.55;;;;;;;1.05;59.86;99855.87;1624426;88;25949;-67
2022/04/03 06:25:39;;;;;;;13.93;8.15;;;;;;;1.19;58.48;99863.43;1634270;86;25764;-67
2022/04/03 06:28:06;;;;;;;11.78;7.83;;;;;;;1.28;58.70;99868.03;1627191;85;27347;-67
2022/04/03 06:30:34;;;;;;;12.47;7.97;;;;;;;1.44;58.32;99867.57;1642872;85;25143;-66
2022/04/03 06:33:01;;;;;;;17.60;8.03;;;;;;;1.62;58.48;99867.67;1619011;88;25943;-67
2022/04/03 06:35:28;;;;;;;14.10;9.00;;;;;;;1.92;58.73;99868.84;1620899;88;25479;-67
2022/04/03 06:37:55;;;;;;;10.98;7.62;;;;;;;2.16;57.88;99870.55;1616170;87;25878;-67
2022/04/03 06:40:23;;;;;;;12.18;7.87;;;;;;;2.43;57.98;99868.17;1633284;86;27325;-67
2022/04/03 06:42:51;;;;;;;12.23;7.83;;;;;;;2.70;57.92;99873.27;1634713;87;25430;-67
2022/04/03 06:45:17;;;;;;;15.05;8.95;;;;;;;3.01;56.86;99878.61;1631735;85;25845;-67
2022/04/03 06:47:44;;;;;;;21.55;12.45;;;;;;;3.20;56.24;99882.86;1642467;85;25512;-67
2022/04/03 06:50:11;;;;;;;11.12;8.10;;;;;;;3.31;55.18;99878.31;1617009;88;25868;-67
2022/04/03 06:52:38;;;;;;;12.15;9.03;;;;;;;3.43;54.84;99877.48;1620800;88;28019;-68
2022/04/03 06:55:08;;;;;;;10.78;6.92;;;;;;;3.53;54.59;99884.69;1628486;85;25804;-66
2022/04/03 06:57:34;;;;;;;12.82;8.40;;;;;;;3.77;54.85;99890.77;1638612;85;25866;-66
2022/04/03 07:00:05;;;;;;;13.22;7.70;;;;;;;3.92;53.92;99890.70;1632328;85;25481;-66
2022/04/03 07:02:30;;;;;;;;;;;;;;;4.11;54.12;99893.56;1639097;85;25814;-67
2022/04/03 07:04:57;;;;;;;13.13;8.35;;;;;;;4.23;52.65;99902.60;1635891;85;27482;-68
2022/04/03 07:07:25;;;;;;;17.92;12.30;;;;;;;4.36;53.16;99908.69;1634813;85;25442;-66
2022/04/03 07:09:53;;;;;;;21.42;13.70;;;;;;;4.63;52.55;99909.59;1635769;85;25851;-68
2022/04/03 07:12:21;;;;;;;13.83;11.12;;;;;;;4.89;52.95;99913.95;1635387;85;25525;-67
2022/04/03 07:14:49;;;;;;;19.98;11.28;;;;;;;5.12;51.66;99902.50;1634528;85;25419;-67
2022/04/03 07:17:16;;;;;;;18.30;9.43;;;;;;;5.40;51.40;99904.92;1638850;85;27304;-67
2022/04/03 07:19:43;;;;;;;179.03;44.58;;;;;;;5.63;51.59;99901.75;1588607;88;25488;-67
2022/04/03 07:22:09;;;;;;;106.27;29.72;;;;;;;5.91;50.91;99906.25;1639882;85;25904;-67
2022/04/03 07:24:35;;;;;;;73.47;22.25;;;;;;;6.21;50.67;99908.87;1618870;88;25778;-67
2022/04/03 07:27:02;;;;;;;55.40;18.12;;;;;;;6.50;49.98;99910.89;1636697;86;25835;-67
2022/04/03 07:29:28;;;;;;;35.80;14.60;;;;;;;6.77;50.32;99909.95;1612329;86;27361;-68
2022/04/03 07:31:54;;;;;;;47.80;17.55;;;;;;;7.13;49.73;99913.41;1619734;88;25844;-67
2022/04/03 07:34:21;;;;;;;20.25;9.83;;;;;;;7.47;49.38;99911.20;1627975;85;25655;-68
2022/04/03 07:37:07;;;;;;;19.57;10.55;;;;;;;7.69;48.73;99923.72;1615211;86;25908;-67
2022/04/03 07:39:33;;;;;;;12.98;8.50;;;;;;;7.97;48.25;99917.24;1646539;86;25526;-67
2022/04/03 07:41:59;;;;;;;16.37;9.03;;;;;;;8.29;47.20;99923.59;1659068;85;27342;-68
2022/04/03 07:44:26;;;;;;;13.62;8.55;;;;;;;8.69;47.08;99922.46;1657173;85;25465;-67
2022/04/03 07:46:52;;;;;;;14.07;8.23;;;;;;;8.87;45.07;99926.63;1660796;85;25417;-67
2022/04/03 07:49:18;;;;;;;11.70;7.78;;;;;;;8.93;45.76;99931.60;1645676;85;25482;-67
2022/04/03 07:51:45;;;;;;;9.70;7.67;;;;;;;9.24;46.04;99927.36;1611403;87;25870;-68
2022/04/03 07:54:11;;;;;;;10.65;7.50;;;;;;;9.39;44.08;99931.02;1667378;85;28006;-69
2022/04/03 07:56:37;;;;;;;10.75;6.67;;;;;;;9.43;43.61;99936.06;1660323;85;25722;-68
2022/04/03 07:59:05;;;;;;;11.93;7.20;;;;;;;9.44;42.80;99934.94;1666016;85;25869;-68
2022/04/03 08:01:34;;;;;;;9.70;7.30;;;;;;;9.52;43.14;99936.89;1658459;85;26539;-68
2022/04/03 08:04:02;;;;;;;12.15;6.85;;;;;;;9.71;43.02;99930.45;1663607;85;25779;-68
2022/04/03 08:06:29;;;;;;;10.80;7.87;;;;;;;9.93;42.59;99932.28;1661522;85;27327;-68
2022/04/03 08:08:55;;;;;;;19.07;11.78;;;;;;;10.05;42.31;99933.04;1667172;85;25714;-69
2022/04/03 08:11:21;;;;;;;15.63;8.88;;;;;;;10.53;42.57;99930.05;1645349;86;25845;-67
2022/04/03 08:13:48;;;;;;;11.45;7.62;;;;;;;10.91;41.89;99939.66;1628961;87;25478;-68
2022/04/03 08:16:15;;;;;;;11.03;6.97;;;;;;;11.24;41.47;99933.74;1636062;87;25657;-68
2022/04/03 08:18:43;;;;;;;9.20;7.37;;;;;;;11.70;40.81;99927.31;1631175;87;27327;-67
2022/04/03 08:21:10;;;;;;;10.38;6.37;;;;;;;11.86;40.13;99935.11;1647782;86;25520;-69
2022/04/03 08:23:38;;;;;;;9.45;6.30;;;;;;;12.32;39.83;99937.52;1649510;85;25582;-69
2022/04/03 08:26:05;;;;;;;9.03;6.45;;;;;;;12.56;39.50;99940.72;1663575;85;25837;-67
2022/04/03 08:28:31;;;;;;;10.08;6.08;;;;;;;12.63;38.36;99937.72;1667157;85;26207;-68
2022/04/03 08:30:58;;;;;;;9.73;6.67;;;;;;;12.74;38.78;99942.75;1667718;85;25830;-68
2022/04/03 08:33:24;;;;;;;9.78;6.20;;;;;;;13.02;39.01;99941.03;1648245;86;25510;-68
2022/04/03 08:35:51;;;;;;;7.92;5.60;;;;;;;13.34;38.21;99943.33;1659446;85;25732;-68
2022/04/03 08:38:18;;;;;;;7.42;6.25;;;;;;;13.49;37.31;99948.69;1658635;85;25915;-68
2022/04/03 08:40:45;;;;;;;8.33;5.67;;;;;;;13.29;36.46;99951.66;1655640;85;25529;-68
2022/04/03 08:43:12;;;;;;;9.83;6.42;;;;;;;13.26;36.93;99955.83;1641322;85;27325;-69
2022/04/03 08:45:39;;;;;;;7.10;5.47;;;;;;;13.49;37.09;99958.20;1647666;85;25740;-67
2022/04/03 08:48:08;;;;;;;9.38;5.65;;;;;;;13.75;36.80;99953.23;1641109;85;26455;-69
2022/04/03 08:50:38;;;;;;;6.60;5.03;;;;;;;14.17;37.22;99952.24;1663971;85;25676;-68
2022/04/03 08:53:07;;;;;;;5.60;5.05;;;;;;;14.57;36.01;99954.20;1667506;85;26349;-67
2022/04/03 08:55:34;;;;;;;;;;;;;;;14.79;36.03;99955.65;1669191;85;28055;-67
2022/04/03 08:58:02;;;;;;;5.53;4.65;;;;;;;15.02;34.37;99952.41;1642227;85;25847;-68
2022/04/03 09:00:32;;;;;;;8.03;5.00;;;;;;;14.97;34.63;99946.63;1639937;87;25727;-68
2022/04/03 09:02:59;;;;;;;;;;;;;;;15.16;34.60;99947.91;1639806;86;25922;-67
2022/04/03 09:05:34;;;;;;;6.90;4.60;;;;;;;15.38;33.86;99951.42;1620317;87;25858;-68
2022/04/03 09:08:01;;;;;;;5.40;4.35;;;;;;;15.49;33.61;99947.60;1644678;85;27349;-68
2022/04/03 09:10:29;;;;;;;6.28;5.08;;;;;;;15.73;33.60;99948.00;1673582;84;26416;-68
2022/04/03 09:12:56;;;;;;;7.97;5.40;;;;;;;15.90;32.72;99954.28;1634414;87;25825;-67
2022/04/03 09:15:24;;;;;;;5.70;4.37;;;;;;;15.89;32.41;99953.50;1630608;86;25918;-67
2022/04/03 09:17:54;;;;;;;9.20;4.95;;;;;;;16.01;32.39;99958.84;1625898;86;25503;-67
2022/04/03 09:20:24;;;;;;;6.72;4.40;;;;;;;16.22;32.72;99950.36;1664025;84;29607;-69
2022/04/03 09:22:53;;;;;;;5.72;4.37;;;;;;;16.54;31.81;99955.75;1613975;87;25797;-67
2022/04/03 09:25:27;;;;;;;7.15;4.33;;;;;;;16.83;32.19;99950.09;1633160;87;26952;-67
2022/04/03 09:27:56;;;;;;;6.92;4.30;;;;;;;17.15;31.71;99943.34;1628341;85;25475;-67
2022/04/03 09:30:39;;;;;;;4.78;3.83;;;;;;;17.34;30.89;99951.30;1641049;86;25894;-67
2022/04/03 09:33:09;;;;;;;9.78;7.03;;;;;;;17.48;30.13;99953.48;1663698;85;27431;-67
2022/04/03 09:36:01;;;;;;;5.42;3.87;;;;;;;18.38;28.99;99958.45;1660986;85;27192;-67
2022/04/03 09:38:29;;;;;;;3.58;3.27;;;;;;;18.38;28.99;99958.45;1637267;86;25539;-68
2022/04/03 09:40:58;;;;;;;4.28;3.20;;;;;;;17.23;28.06;99958.50;1687052;84;25743;-67
2022/04/03 09:43:38;;;;;;;4.58;3.12;;;;;;;17.27;29.08;99953.91;1645415;85;25725;-68
2022/04/03 09:46:11;;;;;;;3.80;3.40;;;;;;;18.38;28.95;99968.63;1623091;87;27417;-68
2022/04/03 09:48:44;;;;;;;6.08;4.00;;;;;;;18.93;28.21;99960.73;1618296;87;25792;-68
2022/04/03 09:51:21;;;;;;;7.03;4.62;;;;;;;19.74;27.61;99955.69;1657275;85;25472;-67
2022/04/03 09:53:56;;;;;;;5.15;3.12;;;;;;;19.75;25.65;99962.20;1676183;84;25509;-68
2022/04/03 09:56:28;;;;;;;6.12;4.05;;;;;;;19.39;26.60;99961.84;1697820;84;25803;-67
2022/04/03 09:59:03;;;;;;;7.28;3.90;;;;;;;19.78;26.54;99958.70;1639454;85;27207;-67
2022/04/03 10:01:38;;;;;;;5.87;4.42;;;;;;;20.04;26.39;99958.30;1645771;85;25901;-67
2022/04/03 10:04:08;;;;;;;6.87;5.00;;;;;;;20.27;25.67;99954.52;1634355;86;25853;-73
2022/04/03 10:06:42;;;;;;;5.72;4.25;;;;;;;21.06;25.94;99961.77;1681773;84;26092;-67
2022/04/03 10:09:11;;;;;;;4.70;3.12;;;;;;;21.55;25.41;99964.45;1668581;84;25890;-67
2022/04/03 10:11:36;;;;;;;3.72;3.08;;;;;;;22.07;24.75;99962.70;1661425;85;28475;-67
2022/04/03 10:14:02;;;;;;;3.37;3.02;;;;;;;22.64;24.22;99963.77;1654740;86;27214;-68
2022/04/03 10:16:29;;;;;;;4.60;2.87;;;;;;;23.07;23.65;99963.03;1627335;85;25852;-67
2022/04/03 10:18:57;;;;;;;8.15;4.92;;;;;;;23.46;23.19;99960.63;1635226;86;25799;-66
2022/04/03 10:21:37;;;;;;;12.73;8.25;;;;;;;22.54;22.28;99963.98;1611723;86;25922;-67
2022/04/03 10:24:18;;;;;;;6.58;4.03;;;;;;;22.78;23.20;99958.79;1632521;86;27959;-68
2022/04/03 10:26:53;;;;;;;3.20;2.90;;;;;;;22.61;22.72;99961.80;1634344;87;25868;-68
2022/04/03 10:29:20;;;;;;;5.35;2.85;;;;;;;21.34;21.87;99966.56;1642281;85;25574;-67
2022/04/03 10:32:04;;;;;;;3.47;3.15;;;;;;;19.83;22.33;99960.28;1635133;85;25938;-67
2022/04/03 10:34:46;;;;;;;3.60;2.98;;;;;;;19.03;22.58;99960.66;1620875;87;25986;-68
2022/04/03 10:37:38;;;;;;;8.50;4.80;;;;;;;19.74;23.27;99962.55;1630586;86;27300;-69
2022/04/03 10:40:08;;;;;;;;;;;;;;;20.15;22.87;99957.00;1665866;85;26404;-68
2022/04/03 10:42:58;;;;;;;5.10;3.20;;;;;;;19.41;22.05;99950.50;1617371;87;25146;-66
2022/04/03 10:45:36;;;;;;;7.03;3.98;;;;;;;19.74;22.74;99954.31;1626734;87;32704;-68
2022/04/03 10:48:26;;;;;;;12.20;9.20;;;;;;;20.36;22.84;99950.06;1632046;85;25600;-69
2022/04/03 10:51:04;;;;;;;;;;;;;;;19.72;21.88;99956.06;1639055;87;27950;-67
2022/04/03 10:53:50;;;;;;;4.92;3.30;;;;;;;18.34;22.42;99956.81;1590417;88;25524;-67
2022/04/03 10:56:28;;;;;;;3.40;3.08;;;;;;;17.21;22.79;99945.77;1632652;86;25650;-67
2022/04/03 10:58:57;;;;;;;4.78;2.92;;;;;;;16.50;23.38;99952.16;1615415;88;25593;-67
2022/04/03 11:01:27;;;;;;;;;;;;;;;17.01;24.12;99961.39;1605056;88;25752;-68
2022/04/03 11:04:04;;;;;;;2.90;2.33;;;;;;;17.93;23.34;99956.04;1599206;88;27368;-69
2022/04/03 11:06:37;;;;;;;3.70;2.85;;;;;;;18.90;23.73;99954.66;1604468;88;25972;-67
2022/04/03 11:09:25;;;;;;;4.58;3.12;;;;;;;19.75;22.79;99945.73;1612915;88;25848;-68
2022/04/03 11:12:01;;;;;;;5.35;3.17;;;;;;;20.67;22.12;99948.66;1613151;87;27546;-68
2022/04/03 11:14:52;;;;;;;3.47;3.05;;;;;;;21.71;22.26;99950.33;1623431;87;25887;-68
2022/04/03 11:17:53;;;;;;;3.65;2.90;;;;;;;22.03;21.49;99955.61;1656319;85;27292;-68
2022/04/03 11:20:42;;;;;;;3.17;2.70;;;;;;;21.80;21.32;99948.55;1672861;85;26032;-69
2022/04/03 11:23:14;;;;;;;2.95;2.35;;;;;;;21.10;21.25;99948.84;1647373;85;26359;-69
2022/04/03 11:25:42;;;;;;;2.70;2.42;;;;;;;20.61;20.99;99947.45;1661072;85;25722;-68
2022/04/03 11:28:10;;;;;;;3.87;2.58;;;;;;;20.16;21.35;99947.60;1654172;85;25897;-68
2022/04/03 11:30:37;;;;;;;3.80;2.90;;;;;;;20.13;22.24;99940.91;1657247;85;27398;-68
2022/04/03 11:33:04;;;;;;;3.40;2.83;;;;;;;20.13;22.00;99945.61;1659120;85;27111;-69
2022/04/03 11:35:36;;;;;;;5.15;3.08;;;;;;;20.12;22.12;99945.40;1657465;85;25852;-67
2022/04/03 11:38:04;;;;;;;5.35;3.92;;;;;;;19.93;21.71;99949.20;1664043;85;25781;-68
2022/04/03 11:40:30;;;;;;;3.33;3.02;;;;;;;19.71;20.86;99941.34;1657916;85;25727;-68
2022/04/03 11:43:19;;;;;;;4.03;2.65;;;;;;;19.55;21.92;99942.39;1663880;84;27531;-68